createdAt,value
2023-05-14T00:01:05.366Z,81.98
2023-05-14T00:03:33.982Z,82.25
2023-05-14T00:06:02.548Z,82.57
2023-05-14T00:08:30.882Z,82.65
2023-05-14T00:10:59.288Z,82.71
2023-05-14T00:13:27.575Z,83.11
2023-05-14T00:15:55.835Z,84.63
2023-05-14T00:18:24.168Z,84.94
2023-05-14T00:20:55.016Z,84.61
2023-05-14T00:23:23.943Z,84.54
2023-05-14T00:25:52.163Z,84.25
2023-05-14T00:28:21.153Z,84.08
2023-05-14T00:30:49.971Z,84.42
2023-05-14T00:33:18.113Z,84.23
2023-05-14T00:35:46.248Z,84.64
2023-05-14T00:38:17.747Z,84.90
2023-05-14T00:40:51.423Z,84.81
2023-05-14T00:43:21.296Z,84.51
2023-05-14T00:45:54.557Z,84.31
2023-05-14T00:48:23.597Z,84.33
2023-05-14T00:50:51.966Z,84.31
2023-05-14T00:53:21.389Z,84.45
2023-05-14T00:55:50.596Z,84.66
2023-05-14T00:58:19.862Z,84.67
2023-05-14T01:00:48.288Z,84.82
2023-05-14T01:03:16.777Z,85.12
2023-05-14T01:06:17.400Z,85.38
2023-05-14T01:09:25.547Z,85.19
2023-05-14T01:12:05.603Z,85.13
2023-05-14T01:14:41.726Z,85.18
2023-05-14T01:17:13.514Z,85.37
2023-05-14T01:19:45.724Z,85.38
2023-05-14T01:22:14.326Z,85.68
2023-05-14T01:24:42.537Z,86.05
2023-05-14T01:27:18.758Z,86.29
2023-05-14T01:29:59.311Z,86.38
2023-05-14T01:32:30.698Z,86.62
2023-05-14T01:35:01.564Z,86.62
2023-05-14T01:37:31.301Z,86.72
2023-05-14T01:40:00.534Z,86.71
2023-05-14T01:42:29.455Z,86.87
2023-05-14T01:44:58.213Z,87.24
2023-05-14T01:47:26.580Z,87.08
2023-05-14T01:49:55.068Z,87.01
2023-05-14T01:52:23.581Z,86.82
2023-05-14T01:54:51.992Z,87.04
2023-05-14T01:57:21.515Z,87.39
2023-05-14T01:59:49.838Z,87.45
2023-05-14T02:02:18.059Z,87.63
2023-05-14T02:04:46.724Z,87.49
2023-05-14T02:07:15.127Z,88.15
2023-05-14T02:09:43.380Z,89.55
2023-05-14T02:12:12.047Z,90.59
2023-05-14T02:14:40.373Z,90.33
2023-05-14T02:17:09.277Z,89.79
2023-05-14T02:19:37.537Z,89.26
2023-05-14T02:22:05.884Z,89.12
2023-05-14T02:24:35.550Z,88.92
2023-05-14T02:27:03.885Z,88.61
2023-05-14T02:29:32.326Z,88.42
2023-05-14T02:32:00.560Z,88.60
2023-05-14T02:34:28.772Z,88.76
2023-05-14T02:36:56.908Z,88.71
2023-05-14T02:39:25.095Z,88.86
2023-05-14T02:41:53.473Z,88.80
2023-05-14T02:44:22.153Z,88.98
2023-05-14T02:46:50.643Z,89.05
2023-05-14T02:49:18.912Z,89.55
2023-05-14T02:51:47.316Z,91.48
2023-05-14T02:54:16.933Z,92.02
2023-05-14T02:56:45.265Z,91.52
2023-05-14T02:59:13.458Z,91.16
2023-05-14T03:01:42.552Z,90.94
2023-05-14T03:04:11.386Z,90.83
2023-05-14T03:06:39.564Z,90.67
2023-05-14T03:09:07.897Z,90.60
2023-05-14T03:11:36.116Z,91.04
2023-05-14T03:14:04.555Z,91.31
2023-05-14T03:16:32.983Z,91.56
2023-05-14T03:19:01.437Z,91.86
2023-05-14T03:21:29.820Z,91.78
2023-05-14T03:23:58.063Z,91.46
2023-05-14T03:26:26.335Z,90.99
2023-05-14T03:28:55.105Z,91.07
2023-05-14T03:31:23.295Z,91.23
2023-05-14T03:33:51.573Z,91.35
2023-05-14T03:36:19.658Z,91.62
2023-05-14T03:38:49.042Z,91.65
2023-05-14T03:41:20.071Z,91.64
2023-05-14T03:43:48.330Z,91.89
2023-05-14T03:46:16.768Z,91.89
2023-05-14T03:48:45.054Z,91.86
2023-05-14T03:51:13.666Z,91.74
2023-05-14T03:53:42.002Z,91.52
2023-05-14T03:56:10.415Z,91.27
2023-05-14T03:58:38.890Z,90.99
2023-05-14T04:01:07.147Z,90.93
2023-05-14T04:03:35.809Z,90.77
2023-05-14T04:06:04.585Z,90.63
2023-05-14T04:08:32.670Z,90.43
2023-05-14T04:11:01.523Z,90.36
2023-05-14T04:13:29.696Z,90.28
2023-05-14T04:15:57.865Z,90.21
2023-05-14T04:18:26.042Z,90.23
2023-05-14T04:20:54.532Z,90.24
2023-05-14T04:23:22.695Z,90.16
2023-05-14T04:25:51.438Z,90.16
2023-05-14T04:28:19.624Z,90.14
2023-05-14T04:30:48.965Z,90.18
2023-05-14T04:33:17.155Z,90.12
2023-05-14T04:35:46.144Z,89.85
2023-05-14T04:38:14.610Z,89.46
2023-05-14T04:40:42.942Z,88.66
2023-05-14T04:43:10.991Z,87.22
2023-05-14T04:45:41.141Z,85.71
2023-05-14T04:48:09.543Z,83.79
2023-05-14T04:50:37.754Z,83.52
2023-05-14T04:53:05.869Z,83.09
2023-05-14T04:55:34.059Z,81.06
2023-05-14T04:58:02.342Z,78.39
2023-05-14T05:00:30.824Z,76.97
2023-05-14T05:02:59.194Z,75.21
2023-05-14T05:05:27.422Z,75.52
2023-05-14T05:07:55.783Z,75.92
2023-05-14T05:10:24.479Z,73.60
2023-05-14T05:12:53.018Z,73.31
2023-05-14T05:15:21.248Z,71.81
2023-05-14T05:17:49.510Z,71.73
2023-05-14T05:20:17.870Z,70.39
2023-05-14T05:22:46.119Z,68.37
2023-05-14T05:25:14.468Z,67.03
2023-05-14T05:27:42.875Z,65.35
2023-05-14T05:30:11.638Z,65.18
2023-05-14T05:32:39.920Z,64.89
2023-05-14T05:35:08.527Z,63.77
2023-05-14T05:37:36.864Z,63.15
2023-05-14T05:40:06.517Z,63.27
2023-05-14T05:42:34.827Z,62.11
2023-05-14T05:45:03.039Z,61.95
2023-05-14T05:47:31.405Z,62.04
2023-05-14T05:50:00.068Z,62.09
2023-05-14T05:52:28.352Z,61.91
2023-05-14T05:54:56.692Z,61.16
2023-05-14T05:57:27.234Z,60.16
2023-05-14T06:00:23.220Z,59.69
2023-05-14T06:02:56.529Z,58.96
2023-05-14T06:05:25.111Z,56.96
2023-05-14T06:07:53.921Z,56.20
2023-05-14T06:10:22.507Z,55.93
2023-05-14T06:12:51.014Z,54.95
2023-05-14T06:15:19.340Z,53.95
2023-05-14T06:17:47.697Z,54.44
2023-05-14T06:20:15.829Z,54.24
2023-05-14T06:22:44.119Z,53.82
2023-05-14T06:25:12.340Z,53.84
2023-05-14T06:27:40.705Z,53.41
2023-05-14T06:30:09.342Z,53.35
2023-05-14T06:32:37.734Z,53.15
2023-05-14T06:35:06.679Z,51.43
2023-05-14T06:37:34.917Z,49.87
2023-05-14T06:40:03.718Z,49.30
2023-05-14T06:42:31.884Z,47.87
2023-05-14T06:45:00.188Z,47.69
2023-05-14T06:47:28.309Z,47.21
2023-05-14T06:49:58.876Z,46.48
2023-05-14T06:52:27.148Z,46.79
2023-05-14T06:54:55.277Z,45.65
2023-05-14T06:57:23.357Z,44.95
2023-05-14T06:59:51.656Z,44.39
2023-05-14T07:02:20.055Z,44.59
2023-05-14T07:04:48.559Z,44.89
2023-05-14T07:07:20.700Z,44.94
2023-05-14T07:09:48.921Z,45.57
2023-05-14T07:12:17.421Z,45.68
2023-05-14T07:14:46.871Z,44.94
2023-05-14T07:17:15.430Z,44.59
2023-05-14T07:19:43.636Z,44.20
2023-05-14T07:22:11.714Z,43.83
2023-05-14T07:24:39.938Z,43.38
2023-05-14T07:27:08.720Z,42.42
2023-05-14T07:29:37.060Z,42.06
2023-05-14T07:32:05.288Z,41.97
2023-05-14T07:34:33.752Z,42.36
2023-05-14T07:37:02.509Z,41.98
2023-05-14T07:39:31.133Z,41.85
2023-05-14T07:42:01.119Z,41.40
2023-05-14T07:44:29.296Z,41.29
2023-05-14T07:46:57.607Z,41.83
2023-05-14T07:49:25.954Z,41.44
2023-05-14T07:51:54.960Z,41.58
2023-05-14T07:54:23.126Z,41.07
2023-05-14T07:56:51.343Z,41.40
2023-05-14T07:59:19.644Z,41.88
2023-05-14T08:01:47.946Z,42.27
2023-05-14T08:04:16.528Z,42.04
2023-05-14T08:06:44.851Z,42.20
2023-05-14T08:09:14.236Z,42.49
2023-05-14T08:11:42.723Z,41.99
2023-05-14T08:14:11.312Z,42.00
2023-05-14T08:16:39.800Z,41.23
2023-05-14T08:19:08.091Z,41.63
2023-05-14T08:21:36.358Z,41.34
2023-05-14T08:24:04.839Z,40.85
2023-05-14T08:26:33.576Z,40.93
2023-05-14T08:29:01.804Z,41.46
2023-05-14T08:31:30.145Z,41.42
2023-05-14T08:33:58.594Z,40.48
2023-05-14T08:36:27.018Z,40.16
2023-05-14T08:38:55.400Z,40.08
2023-05-14T08:41:23.656Z,40.10
2023-05-14T08:44:09.538Z,39.59
2023-05-14T08:46:39.181Z,39.34
2023-05-14T08:49:40.973Z,38.79
2023-05-14T08:52:10.185Z,37.67
2023-05-14T08:54:39.273Z,37.09
2023-05-14T08:57:10.718Z,37.45
2023-05-14T08:59:38.870Z,37.52
2023-05-14T09:02:10.238Z,37.47
2023-05-14T09:04:39.994Z,36.96
2023-05-14T09:07:08.497Z,35.85
2023-05-14T09:09:37.770Z,36.31
2023-05-14T09:12:07.605Z,36.89
2023-05-14T09:14:35.833Z,36.99
2023-05-14T09:17:04.777Z,37.14
2023-05-14T09:19:33.224Z,36.71
2023-05-14T09:22:01.419Z,37.02
2023-05-14T09:24:29.668Z,36.87
2023-05-14T09:26:59.154Z,36.88
2023-05-14T09:29:29.382Z,37.05
2023-05-14T09:32:00.427Z,36.81
2023-05-14T09:34:31.167Z,36.85
2023-05-14T09:37:05.132Z,36.02
2023-05-14T09:39:36.499Z,36.16
2023-05-14T09:42:05.291Z,35.67
2023-05-14T09:44:33.610Z,35.26
2023-05-14T09:47:01.936Z,34.54
2023-05-14T09:49:30.271Z,34.75
2023-05-14T09:51:58.963Z,34.94
2023-05-14T09:54:27.722Z,34.44
2023-05-14T09:56:56.051Z,34.29
2023-05-14T09:59:24.269Z,34.47
2023-05-14T10:01:52.989Z,34.47
2023-05-14T10:04:23.352Z,34.50
2023-05-14T10:06:53.439Z,34.91
2023-05-14T10:09:26.354Z,34.97
2023-05-14T10:12:01.384Z,34.83
2023-05-14T10:14:41.251Z,34.13
2023-05-14T10:17:18.417Z,34.14
2023-05-14T10:19:54.859Z,33.63
2023-05-14T10:22:24.558Z,33.11
2023-05-14T10:24:54.165Z,33.80
2023-05-14T10:27:23.934Z,33.26
2023-05-14T10:29:56.147Z,33.47
2023-05-14T10:32:26.556Z,33.34
2023-05-14T10:34:54.840Z,33.10
2023-05-14T10:37:25.652Z,33.72
2023-05-14T10:40:01.856Z,34.58
2023-05-14T10:42:36.114Z,34.43
2023-05-14T10:45:07.736Z,34.66
2023-05-14T10:47:38.274Z,34.76
2023-05-14T10:50:10.347Z,34.56
2023-05-14T10:52:40.955Z,35.11
2023-05-14T10:55:14.868Z,35.03
2023-05-14T10:57:44.937Z,34.87
2023-05-14T11:00:14.984Z,35.11
2023-05-14T11:02:45.158Z,35.42
2023-05-14T11:05:17.432Z,35.29
2023-05-14T11:07:48.837Z,35.25
2023-05-14T11:10:18.975Z,35.47
2023-05-14T11:12:49.573Z,35.75
2023-05-14T11:15:26.318Z,35.44
2023-05-14T11:17:54.716Z,35.87
2023-05-14T11:20:23.228Z,36.13
2023-05-14T11:22:53.684Z,36.48
2023-05-14T11:25:22.991Z,36.74
2023-05-14T11:27:51.593Z,36.48
2023-05-14T11:30:20.690Z,36.24
2023-05-14T11:32:50.428Z,36.64
2023-05-14T11:35:18.751Z,36.45
2023-05-14T11:37:54.411Z,37.07
2023-05-14T11:40:22.811Z,36.92
2023-05-14T11:42:53.449Z,36.56
2023-05-14T11:45:27.065Z,36.72
2023-05-14T11:47:56.087Z,36.76
2023-05-14T11:50:24.824Z,37.07
2023-05-14T11:52:57.281Z,37.52
2023-05-14T11:55:25.419Z,38.03
2023-05-14T11:57:54.439Z,38.27
2023-05-14T12:00:24.871Z,38.34
2023-05-14T12:02:54.569Z,37.82
2023-05-14T12:05:22.750Z,36.93
2023-05-14T12:07:51.157Z,36.02
2023-05-14T12:10:19.405Z,36.10
2023-05-14T12:12:49.282Z,36.10
2023-05-14T12:15:17.528Z,36.17
2023-05-14T12:17:52.284Z,36.27
2023-05-14T12:20:20.729Z,36.40
2023-05-14T12:22:49.007Z,36.56
2023-05-14T12:25:17.357Z,36.85
2023-05-14T12:27:45.905Z,37.02
2023-05-14T12:32:46.811Z,37.27
2023-05-14T12:35:15.019Z,37.71
2023-05-14T12:37:43.298Z,38.07
2023-05-14T12:40:13.775Z,38.16
2023-05-14T12:42:42.520Z,38.61
2023-05-14T12:45:11.508Z,38.80
2023-05-14T12:47:39.775Z,38.97
2023-05-14T12:50:08.374Z,39.05
2023-05-14T12:52:39.254Z,39.11
2023-05-14T12:55:09.367Z,39.20
2023-05-14T12:57:39.359Z,38.95
2023-05-14T13:00:14.123Z,38.94
2023-05-14T13:02:43.925Z,38.93
2023-05-14T13:05:13.040Z,39.53
2023-05-14T13:07:41.501Z,39.63
2023-05-14T13:10:10.443Z,40.23
2023-05-14T13:12:38.913Z,40.91
2023-05-14T13:15:07.882Z,41.71
2023-05-14T13:17:36.652Z,42.32
2023-05-14T13:20:05.360Z,43.66
2023-05-14T13:22:33.752Z,44.29
2023-05-14T13:25:01.941Z,45.64
2023-05-14T13:27:30.673Z,46.62
2023-05-14T13:29:58.743Z,47.60
2023-05-14T13:32:27.214Z,48.59
2023-05-14T13:34:58.545Z,50.27
2023-05-14T13:37:35.352Z,51.02
2023-05-14T13:40:04.976Z,51.47
2023-05-14T13:42:33.325Z,52.29
2023-05-14T13:45:01.609Z,52.35
2023-05-14T13:47:29.905Z,53.22
2023-05-14T13:49:58.284Z,54.06
2023-05-14T13:52:26.641Z,53.90
2023-05-14T13:54:54.878Z,53.79
2023-05-14T13:57:23.145Z,54.28
2023-05-14T13:59:51.382Z,54.72
2023-05-14T14:02:19.554Z,55.86
2023-05-14T14:04:49.639Z,56.87
2023-05-14T14:07:17.841Z,56.72
2023-05-14T14:09:45.939Z,55.99
2023-05-14T14:12:14.164Z,56.49
2023-05-14T14:14:42.304Z,55.97
2023-05-14T14:17:10.580Z,54.71
2023-05-14T14:19:39.019Z,54.55
2023-05-14T14:22:07.094Z,55.69
2023-05-14T14:24:35.211Z,55.67
2023-05-14T14:27:03.544Z,54.64
2023-05-14T14:29:31.703Z,54.19
2023-05-14T14:32:00.366Z,53.37
2023-05-14T14:34:28.796Z,52.53
2023-05-14T14:36:56.951Z,49.63
2023-05-14T14:39:25.516Z,49.16
2023-05-14T14:41:53.680Z,49.08
2023-05-14T14:44:22.270Z,49.14
2023-05-14T14:46:50.778Z,49.09
2023-05-14T14:49:18.999Z,48.31
2023-05-14T14:51:47.275Z,48.74
2023-05-14T14:54:15.681Z,48.72
2023-05-14T14:56:45.970Z,48.63
2023-05-14T14:59:14.354Z,47.91
2023-05-14T15:01:43.642Z,47.61
2023-05-14T15:04:12.043Z,48.04
2023-05-14T15:06:40.255Z,47.72
2023-05-14T15:09:09.323Z,47.42
2023-05-14T15:11:37.831Z,47.88
2023-05-14T15:14:06.306Z,48.38
2023-05-14T15:16:34.531Z,49.63
2023-05-14T15:19:02.762Z,49.93
2023-05-14T15:21:32.090Z,49.99
2023-05-14T15:24:00.948Z,50.52
2023-05-14T15:26:28.998Z,51.01
2023-05-14T15:28:58.824Z,51.94
2023-05-14T15:31:27.037Z,52.54
2023-05-14T15:33:56.160Z,53.37
2023-05-14T15:36:24.379Z,53.27
2023-05-14T15:38:52.470Z,53.48
2023-05-14T15:41:21.239Z,53.55
2023-05-14T15:43:50.154Z,53.08
2023-05-14T15:46:18.266Z,53.85
2023-05-14T15:48:46.465Z,54.23
2023-05-14T15:51:15.081Z,53.92
2023-05-14T15:53:43.295Z,53.76
2023-05-14T15:56:11.611Z,53.37
2023-05-14T15:58:39.933Z,53.21
2023-05-14T16:01:08.169Z,52.81
2023-05-14T16:03:36.496Z,52.62
2023-05-14T16:06:04.965Z,52.48
2023-05-14T16:08:33.118Z,52.24
2023-05-14T16:11:01.315Z,52.07
2023-05-14T16:13:29.624Z,52.28
2023-05-14T16:15:59.683Z,52.86
2023-05-14T16:18:28.404Z,54.02
2023-05-14T16:20:57.033Z,54.19
2023-05-14T16:23:25.545Z,54.36
2023-05-14T16:25:53.843Z,54.65
2023-05-14T16:28:22.012Z,54.69
2023-05-14T16:30:50.129Z,54.33
2023-05-14T16:33:18.229Z,54.29
2023-05-14T16:35:46.509Z,54.26
2023-05-14T16:38:14.647Z,54.19
2023-05-14T16:40:42.928Z,54.26
2023-05-14T16:43:11.295Z,54.06
2023-05-14T16:45:40.539Z,53.38
2023-05-14T16:48:08.916Z,53.15
2023-05-14T16:50:37.241Z,53.29
2023-05-14T16:53:05.430Z,53.42
2023-05-14T16:55:33.700Z,53.49
2023-05-14T16:58:01.937Z,53.61
2023-05-14T17:00:30.152Z,53.39
2023-05-14T17:02:58.655Z,52.44
2023-05-14T17:05:27.012Z,51.85
2023-05-14T17:07:55.427Z,51.20
2023-05-14T17:10:25.388Z,50.76
2023-05-14T17:12:53.955Z,50.35
2023-05-14T17:15:41.937Z,49.70
2023-05-14T17:18:12.083Z,49.49
2023-05-14T17:20:40.360Z,49.78
2023-05-14T17:23:08.690Z,49.30
2023-05-14T17:25:37.079Z,49.39
2023-05-14T17:28:05.639Z,49.28
2023-05-14T17:30:33.923Z,49.40
2023-05-14T17:33:02.293Z,49.62
2023-05-14T17:35:30.617Z,50.05
2023-05-14T17:38:00.475Z,50.17
2023-05-14T17:40:29.183Z,50.48
2023-05-14T17:42:57.338Z,50.57
2023-05-14T17:45:26.947Z,50.60
2023-05-14T17:47:55.388Z,50.70
2023-05-14T17:50:23.579Z,50.76
2023-05-14T17:52:51.691Z,50.76
2023-05-14T17:55:20.139Z,50.81
2023-05-14T17:57:48.658Z,50.71
2023-05-14T18:00:17.971Z,50.74
2023-05-14T18:02:46.352Z,51.08
2023-05-14T18:05:14.924Z,52.10
2023-05-14T18:07:43.929Z,52.77
2023-05-14T18:10:12.017Z,53.28
2023-05-14T18:12:40.416Z,53.47
2023-05-14T18:15:08.884Z,53.88
2023-05-14T18:17:37.117Z,54.35
2023-05-14T18:20:06.820Z,54.62
2023-05-14T18:22:35.124Z,54.68
2023-05-14T18:25:03.832Z,55.09
2023-05-14T18:27:31.871Z,55.33
2023-05-14T18:30:00.764Z,55.41
2023-05-14T18:32:30.343Z,55.32
2023-05-14T18:34:59.037Z,55.64
2023-05-14T18:37:27.300Z,55.87
2023-05-14T18:39:55.660Z,55.85
2023-05-14T18:42:24.049Z,55.75
2023-05-14T18:44:52.244Z,54.01
2023-05-14T18:47:23.343Z,52.59
2023-05-14T18:49:55.335Z,50.59
2023-05-14T19:01:20.317Z,47.45
2023-05-14T19:02:36.457Z,48.27
2023-05-14T19:04:10.343Z,46.99
2023-05-14T19:07:19.935Z,46.94
2023-05-14T19:09:58.885Z,46.80
2023-05-14T19:12:27.776Z,46.72
2023-05-14T19:14:56.813Z,46.70
2023-05-14T19:17:25.693Z,46.84
2023-05-14T19:19:56.642Z,46.59
2023-05-14T19:22:27.633Z,46.53
2023-05-14T19:24:55.721Z,46.51
2023-05-14T19:27:24.426Z,46.73
2023-05-14T19:29:56.366Z,46.74
2023-05-14T19:32:27.199Z,46.80
2023-05-14T19:38:38.533Z,46.80
2023-05-14T19:41:27.921Z,47.01
2023-05-14T19:43:56.390Z,47.14
2023-05-14T19:46:24.902Z,47.41
2023-05-14T19:48:53.397Z,47.57
2023-05-14T19:51:22.101Z,47.74
2023-05-14T19:53:50.649Z,47.76
2023-05-14T19:56:18.904Z,47.94
2023-05-14T19:58:55.196Z,48.12
2023-05-14T20:01:50.035Z,48.35
2023-05-14T20:04:20.007Z,48.73
2023-05-14T20:06:49.546Z,49.28
2023-05-14T20:09:18.383Z,49.90
2023-05-14T20:11:48.914Z,50.11
2023-05-14T20:14:18.679Z,50.10
2023-05-14T20:16:50.026Z,50.13
2023-05-14T20:19:20.344Z,50.25
2023-05-14T20:21:48.609Z,50.24
2023-05-14T20:24:16.783Z,50.39
2023-05-14T20:26:44.844Z,50.41
2023-05-14T20:29:14.529Z,50.57
2023-05-14T20:31:42.636Z,51.04
2023-05-14T20:34:10.828Z,51.35
2023-05-14T20:36:39.016Z,51.62
2023-05-14T20:39:08.930Z,51.95
2023-05-14T20:41:37.175Z,52.36
2023-05-14T20:44:05.800Z,52.32
2023-05-14T20:46:33.929Z,52.37
2023-05-14T20:49:02.414Z,52.38
2023-05-14T20:51:31.400Z,52.47
2023-05-14T20:53:59.596Z,52.42
2023-05-14T20:56:27.701Z,52.60
2023-05-14T20:58:56.082Z,52.40
2023-05-14T21:01:24.356Z,52.44
2023-05-14T21:03:52.634Z,52.42
2023-05-14T21:06:21.308Z,52.33
2023-05-14T21:08:49.486Z,52.41
2023-05-14T21:11:17.833Z,52.68
2023-05-14T21:13:46.009Z,52.72
2023-05-14T21:16:14.144Z,52.76
2023-05-14T21:18:42.381Z,52.72
2023-05-14T21:21:10.557Z,52.96
2023-05-14T21:23:38.768Z,52.94
2023-05-14T21:26:07.061Z,53.04
2023-05-14T21:28:35.299Z,52.91
2023-05-14T21:31:03.400Z,52.97
2023-05-14T21:33:31.694Z,53.10
2023-05-14T21:35:59.952Z,53.27
2023-05-14T21:38:28.202Z,53.48
2023-05-14T21:40:56.368Z,53.54
2023-05-14T21:43:24.450Z,53.54
2023-05-14T21:45:52.714Z,53.41
2023-05-14T21:48:22.104Z,53.52
2023-05-14T21:50:50.543Z,53.53
2023-05-14T21:53:18.738Z,53.51
2023-05-14T21:55:46.920Z,53.41
2023-05-14T21:58:15.413Z,53.33
2023-05-14T22:00:43.590Z,53.35
2023-05-14T22:03:11.962Z,53.33
2023-05-14T22:05:40.115Z,53.33
2023-05-14T22:08:08.276Z,53.32
2023-05-14T22:10:36.650Z,53.43
2023-05-14T22:13:05.032Z,53.38
2023-05-14T22:15:33.233Z,53.33
2023-05-14T22:18:03.381Z,53.33
2023-05-14T22:20:31.600Z,53.27
2023-05-14T22:22:59.687Z,53.05
2023-05-14T22:25:27.947Z,53.06
2023-05-14T22:27:56.308Z,52.94
2023-05-14T22:30:24.556Z,53.03
2023-05-14T22:32:53.272Z,53.17
2023-05-14T22:35:21.446Z,53.31
2023-05-14T22:37:49.627Z,53.38
2023-05-14T22:40:17.749Z,53.42
2023-05-14T22:42:45.908Z,53.47
2023-05-14T22:45:14.197Z,53.58
2023-05-14T22:47:42.358Z,53.76
2023-05-14T22:50:11.752Z,53.83
2023-05-14T22:52:40.787Z,53.97
2023-05-14T22:55:09.431Z,54.21
2023-05-14T22:57:38.107Z,54.13
2023-05-14T23:00:08.021Z,54.06
2023-05-14T23:02:36.285Z,54.26
2023-05-14T23:05:05.299Z,54.32
2023-05-14T23:07:33.575Z,54.21
2023-05-14T23:10:02.043Z,54.43
2023-05-14T23:12:30.337Z,54.64
2023-05-14T23:14:59.311Z,54.47
2023-05-14T23:17:27.731Z,54.49
2023-05-14T23:19:56.103Z,54.49
2023-05-14T23:22:24.211Z,54.54
2023-05-14T23:24:52.619Z,54.49
2023-05-14T23:27:20.991Z,54.31
2023-05-14T23:29:49.083Z,54.35
2023-05-14T23:32:17.274Z,54.44
2023-05-14T23:34:45.392Z,54.62
2023-05-14T23:37:13.722Z,54.70
2023-05-14T23:39:41.815Z,54.72
2023-05-14T23:42:10.043Z,54.92
2023-05-14T23:44:38.278Z,54.95
2023-05-14T23:47:08.777Z,55.05
2023-05-14T23:49:37.030Z,55.02
2023-05-14T23:52:05.566Z,55.09
2023-05-14T23:54:33.668Z,55.13
2023-05-14T23:57:03.863Z,55.17
2023-05-14T23:59:32.186Z,55.29
